createdAt,value
2023-12-07T00:00:45.988Z,80.61
2023-12-07T00:03:13.728Z,80.56
2023-12-07T00:05:41.296Z,80.66
2023-12-07T00:08:09.335Z,80.51
2023-12-07T00:10:36.909Z,80.62
2023-12-07T00:13:04.570Z,80.55
2023-12-07T00:15:32.114Z,80.35
2023-12-07T00:17:59.895Z,80.41
2023-12-07T00:20:27.540Z,80.26
2023-12-07T00:22:55.220Z,80.27
2023-12-07T00:25:22.889Z,80.29
2023-12-07T00:27:50.759Z,80.41
2023-12-07T00:30:18.605Z,80.36
2023-12-07T00:32:46.253Z,80.36
2023-12-07T00:35:13.832Z,80.39
2023-12-07T00:37:41.496Z,80.42
2023-12-07T00:40:09.102Z,80.34
2023-12-07T00:42:36.910Z,80.40
2023-12-07T00:45:04.460Z,80.47
2023-12-07T00:47:32.017Z,80.47
2023-12-07T00:49:59.885Z,80.52
2023-12-07T00:52:27.839Z,80.51
2023-12-07T00:54:55.632Z,80.39
2023-12-07T00:57:38.633Z,80.77
2023-12-07T01:00:06.195Z,80.36
2023-12-07T01:02:33.851Z,80.34
2023-12-07T01:05:01.462Z,80.21
2023-12-07T01:07:29.193Z,80.40
2023-12-07T01:09:57.155Z,80.30
2023-12-07T01:12:25.067Z,80.27
2023-12-07T01:14:52.878Z,80.50
2023-12-07T01:17:20.542Z,80.50
2023-12-07T01:19:48.103Z,80.15
2023-12-07T01:22:15.789Z,80.12
2023-12-07T01:24:43.478Z,80.04
2023-12-07T01:27:11.092Z,80.05
2023-12-07T01:29:38.744Z,80.11
2023-12-07T01:32:06.614Z,80.28
2023-12-07T01:34:34.350Z,80.38
2023-12-07T01:37:02.376Z,80.27
2023-12-07T01:39:30.110Z,79.92
2023-12-07T01:41:58.071Z,80.03
2023-12-07T01:44:25.839Z,80.09
2023-12-07T01:46:53.602Z,79.93
2023-12-07T01:49:21.482Z,80.10
2023-12-07T01:51:49.438Z,80.23
2023-12-07T01:54:17.705Z,80.39
2023-12-07T01:56:45.480Z,80.21
2023-12-07T01:59:13.035Z,80.14
2023-12-07T02:01:40.786Z,79.73
2023-12-07T02:04:08.469Z,79.61
2023-12-07T02:06:36.327Z,79.80
2023-12-07T02:09:04.217Z,80.02
2023-12-07T02:11:31.852Z,79.68
2023-12-07T02:14:00.064Z,79.88
2023-12-07T02:16:27.816Z,79.89
2023-12-07T02:18:55.318Z,79.83
2023-12-07T02:21:23.516Z,79.74
2023-12-07T02:23:52.832Z,79.69
2023-12-07T02:26:21.299Z,79.66
2023-12-07T02:28:49.181Z,79.69
2023-12-07T02:31:17.146Z,79.73
2023-12-07T02:33:44.960Z,79.58
2023-12-07T02:36:12.797Z,79.34
2023-12-07T02:38:40.526Z,79.32
2023-12-07T02:41:08.191Z,79.51
2023-12-07T02:43:35.940Z,79.30
2023-12-07T02:46:03.761Z,79.56
2023-12-07T02:48:31.426Z,79.56
2023-12-07T02:50:59.041Z,79.60
2023-12-07T02:53:26.598Z,79.66
2023-12-07T02:55:54.266Z,79.52
2023-12-07T02:58:21.851Z,79.40
2023-12-07T03:00:49.508Z,79.55
2023-12-07T03:03:17.267Z,79.67
2023-12-07T03:05:45.963Z,79.78
2023-12-07T03:08:14.465Z,79.62
2023-12-07T03:10:42.413Z,79.59
2023-12-07T03:13:10.036Z,79.64
2023-12-07T03:15:40.809Z,79.46
2023-12-07T03:18:09.972Z,79.55
2023-12-07T03:20:39.686Z,79.36
2023-12-07T03:23:07.449Z,79.37
2023-12-07T03:25:35.217Z,79.09
2023-12-07T03:28:02.971Z,79.11
2023-12-07T03:30:30.648Z,79.14
2023-12-07T03:32:58.338Z,79.20
2023-12-07T03:35:25.950Z,79.41
2023-12-07T03:37:53.619Z,79.26
2023-12-07T03:40:21.627Z,79.28
2023-12-07T03:42:56.007Z,79.42
2023-12-07T03:45:24.810Z,79.56
2023-12-07T03:47:52.459Z,79.55
2023-12-07T03:50:20.119Z,79.27
2023-12-07T03:52:47.867Z,79.14
2023-12-07T03:55:15.588Z,79.13
2023-12-07T03:57:43.302Z,79.21
2023-12-07T04:00:11.160Z,79.35
2023-12-07T04:02:38.831Z,79.27
2023-12-07T04:05:06.382Z,79.12
2023-12-07T04:07:34.033Z,79.26
2023-12-07T04:10:01.941Z,79.02
2023-12-07T04:12:29.676Z,79.06
2023-12-07T04:14:57.346Z,79.20
2023-12-07T04:17:24.895Z,79.32
2023-12-07T04:19:52.543Z,79.24
2023-12-07T04:22:20.570Z,79.80
2023-12-07T04:24:48.282Z,79.71
2023-12-07T04:27:15.951Z,79.49
2023-12-07T04:29:43.507Z,79.28
2023-12-07T04:32:11.084Z,78.88
2023-12-07T04:34:38.811Z,78.98
2023-12-07T04:37:06.509Z,78.94
2023-12-07T04:39:34.151Z,78.86
2023-12-07T04:42:01.715Z,79.22
2023-12-07T04:44:29.678Z,79.07
2023-12-07T04:46:57.354Z,79.21
2023-12-07T04:49:25.088Z,79.22
2023-12-07T04:51:52.978Z,79.25
2023-12-07T04:54:20.777Z,79.01
2023-12-07T04:56:48.401Z,79.01
2023-12-07T04:59:16.098Z,78.73
2023-12-07T05:01:43.935Z,78.72
2023-12-07T05:04:12.051Z,78.70
2023-12-07T05:06:39.766Z,78.88
2023-12-07T05:09:07.327Z,78.81
2023-12-07T05:11:35.196Z,78.89
2023-12-07T05:14:02.749Z,78.73
2023-12-07T05:16:30.525Z,78.66
2023-12-07T05:18:58.254Z,78.80
2023-12-07T05:21:26.037Z,78.95
2023-12-07T05:23:53.622Z,78.77
2023-12-07T05:26:21.367Z,78.73
2023-12-07T05:28:49.237Z,78.73
2023-12-07T05:31:16.902Z,78.81
2023-12-07T05:33:44.452Z,78.67
2023-12-07T05:36:12.105Z,78.74
2023-12-07T05:38:39.695Z,79.10
2023-12-07T05:41:07.334Z,79.03
2023-12-07T05:43:35.087Z,78.82
2023-12-07T05:46:02.768Z,79.13
2023-12-07T05:48:30.657Z,79.02
2023-12-07T05:50:58.576Z,78.88
2023-12-07T05:53:26.241Z,79.36
2023-12-07T05:55:53.900Z,79.64
2023-12-07T05:58:21.711Z,79.18
2023-12-07T06:00:49.411Z,79.04
2023-12-07T06:03:17.241Z,78.82
2023-12-07T06:05:44.900Z,78.79
2023-12-07T06:08:12.620Z,78.99
2023-12-07T06:10:40.535Z,79.06
2023-12-07T06:13:08.193Z,78.97
2023-12-07T06:15:35.905Z,79.30
2023-12-07T06:18:03.570Z,79.41
2023-12-07T06:20:31.339Z,79.37
2023-12-07T06:22:58.996Z,79.32
2023-12-07T06:25:26.709Z,78.83
2023-12-07T06:27:54.324Z,78.76
2023-12-07T06:30:22.085Z,78.79
2023-12-07T06:32:50.074Z,79.19
2023-12-07T06:35:18.334Z,78.94
2023-12-07T06:37:45.890Z,78.83
2023-12-07T06:40:13.724Z,78.79
2023-12-07T06:42:41.611Z,78.68
2023-12-07T06:45:09.588Z,78.42
2023-12-07T06:47:37.160Z,78.46
2023-12-07T06:50:06.465Z,78.36
2023-12-07T06:52:34.856Z,77.93
2023-12-07T06:55:02.926Z,78.16
2023-12-07T06:57:30.658Z,77.91
2023-12-07T06:59:58.319Z,78.25
2023-12-07T07:02:25.902Z,78.10
2023-12-07T07:04:53.666Z,78.07
2023-12-07T07:07:21.519Z,77.81
2023-12-07T07:09:49.174Z,77.94
2023-12-07T07:12:16.892Z,78.16
2023-12-07T07:14:44.708Z,78.08
2023-12-07T07:17:12.683Z,78.35
2023-12-07T07:19:40.265Z,78.16
2023-12-07T07:22:07.891Z,78.02
2023-12-07T07:24:35.454Z,77.79
2023-12-07T07:27:03.098Z,77.84
2023-12-07T07:29:30.766Z,78.27
2023-12-07T07:31:58.441Z,78.49
2023-12-07T07:34:26.033Z,78.45
2023-12-07T07:36:53.751Z,78.16
2023-12-07T07:39:21.406Z,77.93
2023-12-07T07:41:48.979Z,77.57
2023-12-07T07:44:16.626Z,77.70
2023-12-07T07:46:44.227Z,77.41
2023-12-07T07:49:11.921Z,77.17
2023-12-07T07:51:39.751Z,77.07
2023-12-07T07:54:07.389Z,77.14
2023-12-07T07:56:34.932Z,77.09
2023-12-07T07:59:02.420Z,76.83
2023-12-07T08:01:30.025Z,76.53
2023-12-07T08:03:57.717Z,76.66
2023-12-07T08:06:25.371Z,76.77
2023-12-07T08:08:52.937Z,76.53
2023-12-07T08:11:20.601Z,76.36
2023-12-07T08:13:48.197Z,76.64
2023-12-07T08:16:16.050Z,76.62
2023-12-07T08:18:43.749Z,76.12
2023-12-07T08:21:11.545Z,76.30
2023-12-07T08:23:39.416Z,76.08
2023-12-07T08:26:06.971Z,75.72
2023-12-07T08:28:34.547Z,75.95
2023-12-07T08:31:02.134Z,75.81
2023-12-07T08:33:29.909Z,75.96
2023-12-07T08:35:57.620Z,76.18
2023-12-07T08:38:25.179Z,75.98
2023-12-07T08:40:52.884Z,76.09
2023-12-07T08:43:20.502Z,75.94
2023-12-07T08:45:48.568Z,75.97
2023-12-07T08:48:16.197Z,75.82
2023-12-07T08:50:43.901Z,75.53
2023-12-07T08:53:11.600Z,75.60
2023-12-07T08:55:39.387Z,75.74
2023-12-07T08:58:07.139Z,75.56
2023-12-07T09:00:34.748Z,75.70
2023-12-07T09:03:02.477Z,75.79
2023-12-07T09:05:30.800Z,75.92
2023-12-07T09:07:58.663Z,75.12
2023-12-07T09:10:26.448Z,75.08
2023-12-07T09:12:54.075Z,75.19
2023-12-07T09:15:21.738Z,75.16
2023-12-07T09:17:49.416Z,75.17
2023-12-07T09:20:16.960Z,75.15
2023-12-07T09:22:44.731Z,74.73
2023-12-07T09:25:12.430Z,74.76
2023-12-07T09:27:40.453Z,74.62
2023-12-07T09:30:08.009Z,74.53
2023-12-07T09:32:36.891Z,74.60
2023-12-07T09:35:04.751Z,75.04
2023-12-07T09:37:32.477Z,74.61
2023-12-07T09:40:00.163Z,74.93
2023-12-07T09:42:34.298Z,74.80
2023-12-07T09:45:04.227Z,75.19
2023-12-07T09:47:36.994Z,74.72
2023-12-07T09:50:05.789Z,74.66
2023-12-07T09:52:33.418Z,74.83
2023-12-07T09:55:01.229Z,74.66
2023-12-07T09:57:31.140Z,74.46
2023-12-07T09:59:59.511Z,74.48
2023-12-07T10:02:27.054Z,74.63
2023-12-07T10:04:54.681Z,74.95
2023-12-07T10:07:22.765Z,74.34
2023-12-07T10:09:50.975Z,74.34
2023-12-07T10:12:18.629Z,74.37
2023-12-07T10:14:46.188Z,74.14
2023-12-07T10:17:13.772Z,74.40
2023-12-07T10:19:41.679Z,74.53
2023-12-07T10:22:09.413Z,73.86
2023-12-07T10:24:37.150Z,74.33
2023-12-07T10:27:04.796Z,74.51
2023-12-07T10:29:33.654Z,74.34
2023-12-07T10:32:02.199Z,74.29
2023-12-07T10:34:29.855Z,74.46
2023-12-07T10:36:57.387Z,74.91
2023-12-07T10:39:29.253Z,74.80
2023-12-07T10:42:02.682Z,74.59
2023-12-07T10:44:30.229Z,74.41
2023-12-07T10:46:57.869Z,74.30
2023-12-07T10:49:32.309Z,74.02
2023-12-07T10:52:03.198Z,74.32
2023-12-07T10:54:31.291Z,74.24
2023-12-07T10:56:58.959Z,74.48
2023-12-07T10:59:30.591Z,74.61
2023-12-07T11:02:00.809Z,74.25
2023-12-07T11:04:28.687Z,74.45
2023-12-07T11:06:56.525Z,74.21
2023-12-07T11:09:29.228Z,74.20
2023-12-07T11:11:57.428Z,74.19
2023-12-07T11:14:25.311Z,74.27
2023-12-07T11:16:52.936Z,74.45
2023-12-07T11:19:22.870Z,74.17
2023-12-07T11:21:50.638Z,74.32
2023-12-07T11:24:18.282Z,74.39
2023-12-07T11:26:45.851Z,74.68
2023-12-07T11:29:13.810Z,74.83
2023-12-07T11:31:41.495Z,75.34
2023-12-07T11:34:09.220Z,75.42
2023-12-07T11:36:37.210Z,75.50
2023-12-07T11:39:04.690Z,75.55
2023-12-07T11:41:32.320Z,75.65
2023-12-07T11:43:59.982Z,75.68
2023-12-07T11:46:27.769Z,75.92
2023-12-07T11:48:55.587Z,75.78
2023-12-07T11:51:23.269Z,76.08
2023-12-07T11:53:50.936Z,76.16
2023-12-07T11:56:18.487Z,76.07
2023-12-07T11:58:46.176Z,75.95
2023-12-07T12:01:14.112Z,76.20
2023-12-07T12:03:41.889Z,75.92
2023-12-07T12:06:09.757Z,76.41
2023-12-07T12:08:37.517Z,76.27
2023-12-07T12:11:05.080Z,76.34
2023-12-07T12:13:32.687Z,76.45
2023-12-07T12:16:02.851Z,76.06
2023-12-07T12:18:32.089Z,76.68
2023-12-07T12:20:59.915Z,76.87
2023-12-07T12:23:27.898Z,76.66
2023-12-07T12:25:55.588Z,77.14
2023-12-07T12:28:23.616Z,77.20
2023-12-07T12:30:51.378Z,77.05
2023-12-07T12:33:18.954Z,77.03
2023-12-07T12:35:46.598Z,77.29
2023-12-07T12:38:21.051Z,77.41
2023-12-07T12:40:56.399Z,77.34
2023-12-07T12:43:24.293Z,77.57
2023-12-07T12:46:04.914Z,77.54
2023-12-07T12:48:35.086Z,77.73
2023-12-07T12:51:02.875Z,77.82
2023-12-07T12:53:30.537Z,77.65
2023-12-07T12:55:58.211Z,77.46
2023-12-07T12:58:25.776Z,77.40
2023-12-07T13:00:53.746Z,77.36
2023-12-07T13:03:21.299Z,77.48
2023-12-07T13:05:49.244Z,77.25
2023-12-07T13:08:17.021Z,77.68
2023-12-07T13:10:44.845Z,77.86
2023-12-07T13:13:12.609Z,77.76
2023-12-07T13:15:40.310Z,78.13
2023-12-07T13:18:07.952Z,77.74
2023-12-07T13:20:46.188Z,77.83
2023-12-07T13:23:21.215Z,77.78
2023-12-07T13:25:48.797Z,77.84
2023-12-07T13:28:16.443Z,78.12
2023-12-07T13:30:44.309Z,78.22
2023-12-07T13:33:21.579Z,78.74
2023-12-07T13:35:55.141Z,78.24
2023-12-07T13:38:22.846Z,78.71
2023-12-07T13:40:50.712Z,78.33
2023-12-07T13:43:19.280Z,78.47
2023-12-07T13:45:47.374Z,78.80
2023-12-07T13:48:15.504Z,78.91
2023-12-07T13:50:43.409Z,78.72
2023-12-07T13:53:11.095Z,78.79
2023-12-07T13:55:38.843Z,78.57
2023-12-07T13:58:06.620Z,78.81
2023-12-07T14:00:34.535Z,78.83
2023-12-07T14:03:02.419Z,78.92
2023-12-07T14:05:30.174Z,79.03
2023-12-07T14:07:57.988Z,79.17
2023-12-07T14:10:25.978Z,79.34
2023-12-07T14:12:53.600Z,79.64
2023-12-07T14:15:26.010Z,79.78
2023-12-07T14:18:03.565Z,79.68
2023-12-07T14:20:48.309Z,79.76
2023-12-07T14:23:19.159Z,79.49
2023-12-07T14:25:46.707Z,80.06
2023-12-07T14:28:14.277Z,79.73
2023-12-07T14:30:41.839Z,79.74
2023-12-07T14:33:09.718Z,79.92
2023-12-07T14:35:37.547Z,80.05
2023-12-07T14:38:05.428Z,79.56
2023-12-07T14:40:33.299Z,79.40
2023-12-07T14:43:00.954Z,79.38
2023-12-07T14:45:28.521Z,79.04
2023-12-07T14:47:56.396Z,79.47
2023-12-07T14:50:24.278Z,79.54
2023-12-07T14:52:51.937Z,79.59
2023-12-07T14:55:19.469Z,79.60
2023-12-07T14:57:47.023Z,79.61
2023-12-07T15:00:15.030Z,79.54
2023-12-07T15:02:42.697Z,79.82
2023-12-07T15:05:10.521Z,79.63
2023-12-07T15:07:38.076Z,80.04
2023-12-07T15:10:05.938Z,80.22
2023-12-07T15:12:33.724Z,80.01
2023-12-07T15:15:01.645Z,80.00
2023-12-07T15:17:29.677Z,80.31
2023-12-07T15:19:57.698Z,80.59
2023-12-07T15:22:26.029Z,80.35
2023-12-07T15:24:54.491Z,80.26
2023-12-07T15:27:22.850Z,80.06
2023-12-07T15:29:50.554Z,80.05
2023-12-07T15:32:18.177Z,80.18
2023-12-07T15:34:45.911Z,79.88
2023-12-07T15:37:14.433Z,80.37
2023-12-07T15:39:43.018Z,80.44
2023-12-07T15:42:11.033Z,80.22
2023-12-07T15:44:39.336Z,80.12
2023-12-07T15:47:07.001Z,79.93
2023-12-07T15:49:34.798Z,80.30
2023-12-07T15:52:02.838Z,80.72
2023-12-07T15:54:37.470Z,81.18
2023-12-07T15:57:08.823Z,81.42
2023-12-07T15:59:37.243Z,81.42
2023-12-07T16:02:05.118Z,81.42
2023-12-07T16:04:35.370Z,81.74
2023-12-07T16:07:04.476Z,81.42
2023-12-07T16:09:32.025Z,81.33
2023-12-07T16:11:59.793Z,81.25
2023-12-07T16:14:30.437Z,81.85
2023-12-07T16:16:59.914Z,81.77
2023-12-07T16:19:28.361Z,81.30
2023-12-07T16:21:56.214Z,81.44
2023-12-07T16:24:23.747Z,81.08
2023-12-07T16:26:51.824Z,81.10
2023-12-07T16:29:19.465Z,80.84
2023-12-07T16:31:47.081Z,81.24
2023-12-07T16:34:15.016Z,81.39
2023-12-07T16:36:42.880Z,81.35
2023-12-07T16:39:10.338Z,81.19
2023-12-07T16:41:41.940Z,81.49
2023-12-07T16:44:17.546Z,81.59
2023-12-07T16:46:45.176Z,81.92
2023-12-07T16:49:12.735Z,81.85
2023-12-07T16:51:40.626Z,81.95
2023-12-07T16:54:08.339Z,81.67
2023-12-07T16:56:36.184Z,81.60
2023-12-07T16:59:03.717Z,81.79
2023-12-07T17:01:31.293Z,81.49
2023-12-07T17:03:59.100Z,81.50
2023-12-07T17:06:27.216Z,81.76
2023-12-07T17:09:07.243Z,81.40
2023-12-07T17:11:39.419Z,81.37
2023-12-07T17:14:07.622Z,81.30
2023-12-07T17:16:35.348Z,81.53
2023-12-07T17:19:03.149Z,81.64
2023-12-07T17:21:31.222Z,81.48
2023-12-07T17:23:59.177Z,81.63
2023-12-07T17:26:30.454Z,81.52
2023-12-07T17:29:01.537Z,81.52
2023-12-07T17:31:29.105Z,81.67
2023-12-07T17:33:58.613Z,81.44
2023-12-07T17:36:27.894Z,81.44
2023-12-07T17:38:55.710Z,81.40
2023-12-07T17:41:24.391Z,81.58
2023-12-07T17:43:52.141Z,81.60
2023-12-07T17:46:19.766Z,81.59
2023-12-07T17:48:47.493Z,81.50
2023-12-07T17:51:15.318Z,81.54
2023-12-07T17:53:42.978Z,81.69
2023-12-07T17:56:10.519Z,81.93
2023-12-07T17:58:38.204Z,82.31
2023-12-07T18:01:06.530Z,82.13
2023-12-07T18:03:34.459Z,82.18
2023-12-07T18:06:02.036Z,82.05
2023-12-07T18:08:29.753Z,82.10
2023-12-07T18:10:57.517Z,82.35
2023-12-07T18:13:25.174Z,82.45
2023-12-07T18:15:53.158Z,82.50
2023-12-07T18:18:21.481Z,82.16
2023-12-07T18:20:49.335Z,82.24
2023-12-07T18:23:17.356Z,82.18
2023-12-07T18:25:44.909Z,82.10
2023-12-07T18:28:12.558Z,81.98
2023-12-07T18:30:40.246Z,82.15
2023-12-07T18:33:08.007Z,82.40
2023-12-07T18:35:35.694Z,82.21
2023-12-07T18:38:03.325Z,81.99
2023-12-07T18:40:30.884Z,81.75
2023-12-07T18:43:00.409Z,81.58
2023-12-07T18:45:28.457Z,81.74
2023-12-07T18:47:56.206Z,81.75
2023-12-07T18:50:24.012Z,81.64
2023-12-07T18:52:51.545Z,81.59
2023-12-07T18:55:19.216Z,81.60
2023-12-07T18:57:47.071Z,81.47
2023-12-07T19:00:14.634Z,81.58
2023-12-07T19:02:42.344Z,81.63
2023-12-07T19:05:10.429Z,81.56
2023-12-07T19:07:38.118Z,81.68
2023-12-07T19:10:05.786Z,81.61
2023-12-07T19:12:33.345Z,81.69
2023-12-07T19:15:01.033Z,81.57
2023-12-07T19:17:29.082Z,81.74
2023-12-07T19:19:57.047Z,81.54
2023-12-07T19:22:24.601Z,81.55
2023-12-07T19:24:52.164Z,81.44
2023-12-07T19:27:20.316Z,81.29
2023-12-07T19:29:48.127Z,81.19
2023-12-07T19:32:15.966Z,81.04
2023-12-07T19:34:43.570Z,81.34
2023-12-07T19:37:11.292Z,81.28
2023-12-07T19:39:39.084Z,81.32
2023-12-07T19:42:06.852Z,81.56
2023-12-07T19:44:34.685Z,81.09
2023-12-07T19:47:02.448Z,81.27
2023-12-07T19:49:30.192Z,81.40
2023-12-07T19:51:57.969Z,81.58
2023-12-07T19:54:25.536Z,81.55
2023-12-07T19:56:53.256Z,81.50
2023-12-07T19:59:20.962Z,81.60
2023-12-07T20:01:48.624Z,81.49
2023-12-07T20:04:16.193Z,81.58
2023-12-07T20:06:43.831Z,81.59
2023-12-07T20:09:11.554Z,81.48
2023-12-07T20:11:39.310Z,81.35
2023-12-07T20:14:07.138Z,80.95
2023-12-07T20:16:34.709Z,81.31
2023-12-07T20:19:02.499Z,81.29
2023-12-07T20:21:30.235Z,81.29
2023-12-07T20:23:57.883Z,81.38
2023-12-07T20:26:25.687Z,81.46
2023-12-07T20:28:53.408Z,81.64
2023-12-07T20:31:20.956Z,81.46
2023-12-07T20:33:49.056Z,81.51
2023-12-07T20:36:16.799Z,81.48
2023-12-07T20:38:44.472Z,81.52
2023-12-07T20:41:12.023Z,81.54
2023-12-07T20:43:39.678Z,81.49
2023-12-07T20:46:07.236Z,81.40
2023-12-07T20:48:34.893Z,81.37
2023-12-07T20:51:02.763Z,81.34
2023-12-07T20:53:30.558Z,81.35
2023-12-07T20:55:58.496Z,81.34
2023-12-07T20:58:26.470Z,81.38
2023-12-07T21:00:54.147Z,81.38
2023-12-07T21:03:21.785Z,81.43
2023-12-07T21:05:49.467Z,81.37
2023-12-07T21:08:17.015Z,81.45
2023-12-07T21:10:44.716Z,81.34
2023-12-07T21:13:12.333Z,81.27
2023-12-07T21:15:40.650Z,81.20
2023-12-07T21:18:08.607Z,81.25
2023-12-07T21:20:36.544Z,81.27
2023-12-07T21:23:04.126Z,81.27
2023-12-07T21:25:31.765Z,81.47
2023-12-07T21:27:59.327Z,81.34
2023-12-07T21:30:27.296Z,81.84
2023-12-07T21:32:55.380Z,81.70
2023-12-07T21:35:23.230Z,81.84
2023-12-07T21:37:51.097Z,81.96
2023-12-07T21:40:18.653Z,81.87
2023-12-07T21:42:46.215Z,82.03
2023-12-07T21:45:13.880Z,82.16
2023-12-07T21:47:41.615Z,82.20
2023-12-07T21:50:09.560Z,82.12
2023-12-07T21:52:37.180Z,82.05
2023-12-07T21:55:04.753Z,82.08
2023-12-07T21:57:32.179Z,81.65
2023-12-07T21:59:59.923Z,81.90
2023-12-07T22:02:27.772Z,81.86
2023-12-07T22:04:55.493Z,81.73
2023-12-07T22:07:23.316Z,81.94
2023-12-07T22:09:51.219Z,81.83
2023-12-07T22:12:19.479Z,82.10
2023-12-07T22:14:47.046Z,82.02
2023-12-07T22:17:15.211Z,82.13
2023-12-07T22:19:43.102Z,82.28
2023-12-07T22:22:10.838Z,82.36
2023-12-07T22:24:38.406Z,82.51
2023-12-07T22:27:06.385Z,82.47
2023-12-07T22:29:34.040Z,82.55
2023-12-07T22:32:01.586Z,82.61
2023-12-07T22:34:29.222Z,82.66
2023-12-07T22:36:57.021Z,82.76
2023-12-07T22:39:24.573Z,82.82
2023-12-07T22:41:52.556Z,82.87
2023-12-07T22:44:20.305Z,82.78
2023-12-07T22:46:47.963Z,82.82
2023-12-07T22:49:15.504Z,82.78
2023-12-07T22:51:43.390Z,82.72
2023-12-07T22:54:10.992Z,82.79
2023-12-07T22:56:38.840Z,82.58
2023-12-07T22:59:06.278Z,82.76
2023-12-07T23:01:33.933Z,82.53
2023-12-07T23:04:01.857Z,82.50
2023-12-07T23:06:29.983Z,82.51
2023-12-07T23:08:57.559Z,82.52
2023-12-07T23:11:25.090Z,82.54
2023-12-07T23:13:52.664Z,82.44
2023-12-07T23:16:20.205Z,82.50
2023-12-07T23:18:48.060Z,82.38
2023-12-07T23:21:15.839Z,82.34
2023-12-07T23:23:43.672Z,82.17
2023-12-07T23:26:11.418Z,81.93
2023-12-07T23:28:39.137Z,81.98
2023-12-07T23:31:06.794Z,82.00
2023-12-07T23:33:34.620Z,81.97
2023-12-07T23:36:02.513Z,82.09
2023-12-07T23:38:30.216Z,82.17
2023-12-07T23:40:57.743Z,82.24
2023-12-07T23:43:25.322Z,82.45
2023-12-07T23:45:52.858Z,82.33
2023-12-07T23:48:20.542Z,82.32
2023-12-07T23:50:48.528Z,82.44
2023-12-07T23:53:16.273Z,82.39
2023-12-07T23:55:43.916Z,82.47
2023-12-07T23:58:11.583Z,82.44
